^^
Station Historical Data
Daily Summary for October 5, 2017 Units:  English    Metric   Both
« Previous Day
Next Day »
Daily Weekly Monthly Yearly Custom
  High: Low: Average:
Temperature: 81.3 °F 63.3 °F 71.2 °F
Dew Point: 65.8 °F 57.5 °F 61.4 °F
Humidity: 92% 58% 72%
Wind Speed: 6.0mph 0.0mph 2.3mph
Wind Gust: 13.0mph - -
Wind- - SSW
Pressure: 30.19 in 30.02 in -
Precipitation: 0.04 in    
Historical Graphs
 
 
Tabular Data for October 5, 2017
Time Temperature Dew Point Pressure Wind Wind Speed Wind Gust Humidity Rainfall Rate (Hourly) Conditions
00:00 65.6 °F 57.8 °F 30.19 in SSW 2.0 mph 8.0 mph 76% 0.00 in CLR
00:15 65.3 °F 57.5 °F 30.19 in SW 3.0 mph 8.0 mph 76% 0.00 in CLR
00:30 65.2 °F 57.8 °F 30.19 in SSW 2.0 mph 8.0 mph 77% 0.00 in CLR
00:45 65.3 °F 57.9 °F 30.19 in WSW 3.0 mph 7.0 mph 77% 0.00 in CLR
01:00 65.0 °F 57.6 °F 30.18 in SSW 3.0 mph 9.0 mph 77% 0.00 in CLR
01:15 64.7 °F 57.7 °F 30.18 in South 2.0 mph 10.0 mph 78% 0.00 in SCT
01:30 64.6 °F 57.6 °F 30.18 in South 2.0 mph 10.0 mph 78% 0.00 in SCT
01:45 64.6 °F 57.6 °F 30.18 in SW 3.0 mph 10.0 mph 78% 0.00 in SCT
02:00 64.6 °F 57.9 °F 30.18 in South 1.0 mph 5.0 mph 79% 0.00 in SCT
02:15 64.6 °F 57.9 °F 30.17 in SSW 3.0 mph 7.0 mph 79% 0.00 in BKN
02:30 64.6 °F 57.9 °F 30.17 in South 3.0 mph 9.0 mph 79% 0.00 in BKN
02:45 64.7 °F 57.7 °F 30.16 in SSW 5.0 mph 8.0 mph 78% 0.00 in BKN
03:00 65.0 °F 58.0 °F 30.16 in SSW 3.0 mph 9.0 mph 78% 0.00 in BKN
03:15 65.2 °F 57.8 °F 30.15 in SW 5.0 mph 10.0 mph 77% 0.00 in BKN
03:30 65.3 °F 57.9 °F 30.15 in SSW 3.0 mph 9.0 mph 77% 0.00 in BKN
03:45 65.2 °F 57.8 °F 30.14 in SW 2.0 mph 8.0 mph 77% 0.00 in BKN
04:00 65.2 °F 57.8 °F 30.14 in SSW 3.0 mph 8.0 mph 77% 0.00 in BKN
04:15 65.0 °F 57.9 °F 30.14 in SW 3.0 mph 7.0 mph 78% 0.00 in BKN
04:30 64.9 °F 57.9 °F 30.13 in SSW 6.0 mph 9.0 mph 78% 0.00 in BKN
04:45 64.7 °F 58.0 °F 30.14 in SSW 3.0 mph 10.0 mph 79% 0.00 in BKN
05:00 64.5 °F 57.9 °F 30.14 in SSW 2.0 mph 12.0 mph 79% 0.00 in BKN
05:15 64.4 °F 57.7 °F 30.14 in SSW 2.0 mph 12.0 mph 79% 0.00 in BKN
05:30 64.2 °F 57.9 °F 30.13 in SW 2.0 mph 9.0 mph 80% 0.00 in BKN
05:45 63.9 °F 57.6 °F 30.13 in SW 1.0 mph 5.0 mph 80% 0.00 in BKN
06:00 63.7 °F 57.8 °F 30.14 in Calm   5.0 mph 81% 0.00 in BKN
06:15 63.5 °F 57.9 °F 30.14 in SSW 1.0 mph 5.0 mph 82% 0.00 in FEW
06:30 63.3 °F 57.7 °F 30.14 in South 1.0 mph 5.0 mph 82% 0.00 in FEW
06:45 63.4 °F 57.8 °F 30.15 in South 1.0 mph 5.0 mph 82% 0.00 in FEW
07:00 63.5 °F 57.9 °F 30.15 in Calm   4.0 mph 82% 0.00 in FEW
07:15 63.6 °F 57.6 °F 30.15 in Calm   5.0 mph 81% 0.00 in FEW
07:30 63.5 °F 57.9 °F 30.15 in Calm   4.0 mph 82% 0.00 in FEW
07:45 63.6 °F 57.7 °F 30.15 in South 2.0 mph 5.0 mph 81% 0.00 in FEW
08:00 63.7 °F 57.8 °F 30.15 in SW 2.0 mph 5.0 mph 81% 0.00 in FEW
08:15 64.0 °F 58.1 °F 30.15 in SW 2.0 mph 10.0 mph 81% 0.00 in FEW
08:30 64.3 °F 58.0 °F 30.15 in South 3.0 mph 9.0 mph 80% 0.00 in FEW
08:45 64.7 °F 58.4 °F 30.15 in SSW 2.0 mph 9.0 mph 80% 0.00 in FEW
09:00 65.3 °F 58.6 °F 30.15 in SW 3.0 mph 7.0 mph 79% 0.00 in FEW
09:15 66.5 °F 58.7 °F 30.15 in South 2.0 mph 9.0 mph 76% 0.00 in CLR
09:30 67.7 °F 59.1 °F 30.14 in South 1.0 mph 8.0 mph 74% 0.00 in CLR
09:45 69.0 °F 60.4 °F 30.15 in Calm   6.0 mph 74% 0.00 in CLR
10:00 69.3 °F 59.9 °F 30.14 in South 3.0 mph 7.0 mph 72% 0.00 in CLR
10:15 69.9 °F 60.1 °F 30.15 in South 3.0 mph 7.0 mph 71% 0.00 in FEW
10:30 70.4 °F 60.1 °F 30.13 in WSW 3.0 mph 9.0 mph 70% 0.00 in FEW
10:45 71.7 °F 60.5 °F 30.13 in SSW 2.0 mph 8.0 mph 68% 0.00 in FEW
11:00 73.0 °F 61.4 °F 30.12 in SW 2.0 mph 7.0 mph 67% 0.00 in FEW
11:15 73.5 °F 61.0 °F 30.12 in SW 2.0 mph 7.0 mph 65% 0.00 in FEW
11:30 73.8 °F 61.3 °F 30.11 in SW 2.0 mph 9.0 mph 65% 0.00 in FEW
11:45 75.7 °F 61.7 °F 30.11 in SSW 2.0 mph 9.0 mph 62% 0.00 in FEW
12:00 76.5 °F 61.6 °F 30.11 in SSW 6.0 mph 9.0 mph 60% 0.00 in FEW
12:15 76.6 °F 61.7 °F 30.10 in SSW 3.0 mph 9.0 mph 60% 0.00 in FEW
12:30 77.5 °F 62.1 °F 30.10 in SSW 3.0 mph 8.0 mph 59% 0.00 in FEW
12:45 78.3 °F 63.2 °F 30.09 in SW 2.0 mph 6.0 mph 60% 0.00 in FEW
13:00 79.3 °F 63.7 °F 30.08 in SSW 2.0 mph 12.0 mph 59% 0.00 in FEW
13:15 78.6 °F 62.6 °F 30.08 in SW 2.0 mph 10.0 mph 58% 0.00 in SCT
13:30 78.7 °F 63.2 °F 30.08 in SSW 3.0 mph 8.0 mph 59% 0.00 in SCT
13:45 79.1 °F 63.6 °F 30.07 in SSW 2.0 mph 9.0 mph 59% 0.00 in SCT
14:00 79.7 °F 64.1 °F 30.07 in SW 1.0 mph 9.0 mph 59% 0.00 in SCT
14:15 80.7 °F 64.5 °F 30.06 in SSW 6.0 mph 9.0 mph 58% 0.00 in SCT
14:30 80.7 °F 65.0 °F 30.05 in SW 6.0 mph 9.0 mph 59% 0.00 in SCT
14:45 80.3 °F 65.1 °F 30.05 in SSW 3.0 mph 9.0 mph 60% 0.00 in SCT
15:00 81.3 °F 65.6 °F 30.05 in SSW 5.0 mph 12.0 mph 59% 0.00 in SCT
15:15 79.9 °F 64.3 °F 30.04 in WSW 6.0 mph 13.0 mph 59% 0.00 in SCT
15:30 79.5 °F 64.9 °F 30.04 in SW 6.0 mph 13.0 mph 61% 0.00 in SCT
15:45 79.7 °F 64.6 °F 30.03 in SSW 3.0 mph 9.0 mph 60% 0.00 in SCT
16:00 79.4 °F 64.8 °F 30.03 in SW 5.0 mph 9.0 mph 61% 0.00 in SCT
16:15 79.4 °F 65.2 °F 30.04 in SSW 1.0 mph 9.0 mph 62% 0.00 in SCT
16:30 78.7 °F 65.0 °F 30.03 in SSW 2.0 mph 8.0 mph 63% 0.00 in SCT
16:45 78.4 °F 64.8 °F 30.03 in SSW 2.0 mph 9.0 mph 63% 0.00 in SCT
17:00 78.4 °F 65.2 °F 30.02 in SSW 1.0 mph 9.0 mph 64% 0.00 in SCT
17:15 78.3 °F 65.1 °F 30.02 in SSW 2.0 mph 9.0 mph 64% 0.00 in SCT
17:45 77.9 °F 65.2 °F 30.03 in SSW 1.0 mph 5.0 mph 65% 0.00 in SCT
18:00 77.6 °F 65.3 °F 30.02 in SSW 1.0 mph 5.0 mph 66% 0.00 in SCT
18:15 77.2 °F 65.0 °F 30.02 in Calm   6.0 mph 66% 0.00 in SCT
18:30 76.8 °F 65.0 °F 30.02 in Calm   8.0 mph 67% 0.00 in SCT
18:45 76.3 °F 65.0 °F 30.03 in SW 1.0 mph 4.0 mph 68% 0.00 in SCT
19:00 76.0 °F 65.1 °F 30.03 in SSW 2.0 mph 7.0 mph 69% 0.00 in SCT
19:15 75.7 °F 64.8 °F 30.03 in Calm   4.0 mph 69% 0.00 in BKN
19:30 75.5 °F 64.6 °F 30.04 in SSW 1.0 mph 5.0 mph 69% 0.00 in BKN
19:45 75.5 °F 64.6 °F 30.04 in SW 1.0 mph 5.0 mph 69% 0.00 in BKN
20:00 75.5 °F 64.6 °F 30.03 in SSW 2.0 mph 5.0 mph 69% 0.00 in BKN
20:15 75.5 °F 64.6 °F 30.04 in SSW 3.0 mph 10.0 mph 69% 0.00 in BKN
20:30 75.5 °F 64.6 °F 30.05 in SW 2.0 mph 8.0 mph 69% 0.00 in BKN
20:45 75.3 °F 64.8 °F 30.05 in SSW 2.0 mph 9.0 mph 70% 0.00 in BKN
21:00 75.1 °F 64.6 °F 30.05 in SSW 3.0 mph 9.0 mph 70% 0.00 in BKN
21:15 74.8 °F 64.4 °F 30.05 in SSW 1.0 mph 8.0 mph 70% 0.00 in BKN
21:30 74.5 °F 64.5 °F 30.06 in SSW 3.0 mph 9.0 mph 71% 0.00 in BKN
21:45 74.5 °F 64.5 °F 30.06 in SW 2.0 mph 9.0 mph 71% 0.00 in BKN
22:00 74.4 °F 64.4 °F 30.06 in SSW 3.0 mph 9.0 mph 71% 0.00 in BKN
22:15 74.0 °F 64.4 °F 30.06 in WSW 2.0 mph 9.0 mph 72% 0.00 in BKN
22:30 72.9 °F 64.9 °F 30.06 in SW 2.0 mph 9.0 mph 76% 0.00 in BKN
23:00 70.2 °F 65.5 °F 30.05 in Calm   4.0 mph 85% 0.01 in BKN
23:30 68.5 °F 65.8 °F 30.06 in South 2.0 mph 6.0 mph 91% 0.01 in -RA
23:45 68.1 °F 65.7 °F 30.07 in SSW 1.0 mph 5.0 mph 92% 0.00 in -RA
TarryTown NY Weather
Compliments of Weather Underground - 1.5 mb